sensor_id;sensor_type;location;lat;lon;timestamp;P1;durP1;ratioP1;P2;durP2;ratioP2
57635;SDS011;43465;50.728;4.160;2023-08-06T00:00:21;6.40;;;4.82;;
57635;SDS011;43465;50.728;4.160;2023-08-06T00:02:48;12.57;;;5.25;;
57635;SDS011;43465;50.728;4.160;2023-08-06T00:05:14;11.52;;;5.30;;
57635;SDS011;43465;50.728;4.160;2023-08-06T00:07:43;11.52;;;6.28;;
57635;SDS011;43465;50.728;4.160;2023-08-06T00:10:09;13.65;;;5.68;;
57635;SDS011;43465;50.728;4.160;2023-08-06T00:12:35;14.52;;;6.15;;
57635;SDS011;43465;50.728;4.160;2023-08-06T00:15:01;17.08;;;6.47;;
57635;SDS011;43465;50.728;4.160;2023-08-06T00:17:27;12.90;;;6.30;;
57635;SDS011;43465;50.728;4.160;2023-08-06T00:19:52;12.23;;;7.20;;
57635;SDS011;43465;50.728;4.160;2023-08-06T00:22:18;14.88;;;7.70;;
57635;SDS011;43465;50.728;4.160;2023-08-06T00:24:44;17.15;;;7.80;;
57635;SDS011;43465;50.728;4.160;2023-08-06T00:27:09;11.18;;;7.55;;
57635;SDS011;43465;50.728;4.160;2023-08-06T00:29:35;13.63;;;8.05;;
57635;SDS011;43465;50.728;4.160;2023-08-06T00:32:00;15.70;;;7.95;;
57635;SDS011;43465;50.728;4.160;2023-08-06T00:34:26;16.23;;;9.13;;
57635;SDS011;43465;50.728;4.160;2023-08-06T00:36:52;19.25;;;9.50;;
57635;SDS011;43465;50.728;4.160;2023-08-06T00:39:18;19.35;;;9.43;;
57635;SDS011;43465;50.728;4.160;2023-08-06T00:41:44;19.48;;;9.70;;
57635;SDS011;43465;50.728;4.160;2023-08-06T00:44:10;16.67;;;10.05;;
57635;SDS011;43465;50.728;4.160;2023-08-06T00:46:35;21.50;;;10.80;;
57635;SDS011;43465;50.728;4.160;2023-08-06T00:49:01;17.25;;;9.88;;
57635;SDS011;43465;50.728;4.160;2023-08-06T00:51:27;20.67;;;10.68;;
57635;SDS011;43465;50.728;4.160;2023-08-06T00:53:53;21.85;;;10.77;;
57635;SDS011;43465;50.728;4.160;2023-08-06T00:56:19;18.58;;;10.95;;
57635;SDS011;43465;50.728;4.160;2023-08-06T00:58:45;21.05;;;10.32;;
57635;SDS011;43465;50.728;4.160;2023-08-06T01:01:11;16.73;;;10.43;;
57635;SDS011;43465;50.728;4.160;2023-08-06T01:03:37;14.70;;;9.68;;
57635;SDS011;43465;50.728;4.160;2023-08-06T01:06:03;18.48;;;9.63;;
57635;SDS011;43465;50.728;4.160;2023-08-06T01:13:53;14.48;;;9.63;;
57635;SDS011;43465;50.728;4.160;2023-08-06T01:16:24;14.30;;;8.43;;
57635;SDS011;43465;50.728;4.160;2023-08-06T01:18:50;16.10;;;7.82;;
57635;SDS011;43465;50.728;4.160;2023-08-06T01:21:16;12.18;;;7.13;;
57635;SDS011;43465;50.728;4.160;2023-08-06T01:23:42;13.55;;;7.20;;
57635;SDS011;43465;50.728;4.160;2023-08-06T01:26:15;10.05;;;6.53;;
57635;SDS011;43465;50.728;4.160;2023-08-06T01:31:37;11.35;;;5.85;;
57635;SDS011;43465;50.728;4.160;2023-08-06T01:34:05;12.23;;;5.65;;
57635;SDS011;43465;50.728;4.160;2023-08-06T01:36:44;9.15;;;4.70;;
57635;SDS011;43465;50.728;4.160;2023-08-06T01:39:10;10.35;;;3.97;;
57635;SDS011;43465;50.728;4.160;2023-08-06T01:41:36;6.10;;;3.67;;
57635;SDS011;43465;50.728;4.160;2023-08-06T01:44:01;9.25;;;3.20;;
57635;SDS011;43465;50.728;4.160;2023-08-06T01:46:27;9.25;;;2.78;;
57635;SDS011;43465;50.728;4.160;2023-08-06T01:48:52;10.48;;;2.88;;
57635;SDS011;43465;50.728;4.160;2023-08-06T01:51:18;3.70;;;2.17;;
57635;SDS011;43465;50.728;4.160;2023-08-06T01:53:44;6.45;;;2.40;;
57635;SDS011;43465;50.728;4.160;2023-08-06T01:56:09;9.45;;;2.75;;
57635;SDS011;43465;50.728;4.160;2023-08-06T01:58:35;6.00;;;2.80;;
57635;SDS011;43465;50.728;4.160;2023-08-06T02:01:01;7.50;;;2.67;;
57635;SDS011;43465;50.728;4.160;2023-08-06T02:03:27;8.38;;;2.30;;
57635;SDS011;43465;50.728;4.160;2023-08-06T02:05:52;3.95;;;1.90;;
57635;SDS011;43465;50.728;4.160;2023-08-06T02:08:18;5.93;;;1.88;;
57635;SDS011;43465;50.728;4.160;2023-08-06T02:10:44;4.57;;;2.03;;
57635;SDS011;43465;50.728;4.160;2023-08-06T02:13:10;3.90;;;1.90;;
57635;SDS011;43465;50.728;4.160;2023-08-06T02:15:36;3.03;;;1.60;;
57635;SDS011;43465;50.728;4.160;2023-08-06T02:18:07;9.55;;;1.90;;
57635;SDS011;43465;50.728;4.160;2023-08-06T02:20:33;4.40;;;1.70;;
57635;SDS011;43465;50.728;4.160;2023-08-06T02:22:58;6.68;;;1.95;;
57635;SDS011;43465;50.728;4.160;2023-08-06T02:25:24;5.82;;;2.50;;
57635;SDS011;43465;50.728;4.160;2023-08-06T02:27:50;4.60;;;2.85;;
57635;SDS011;43465;50.728;4.160;2023-08-06T02:30:15;5.50;;;3.42;;
57635;SDS011;43465;50.728;4.160;2023-08-06T02:32:41;4.72;;;4.13;;
57635;SDS011;43465;50.728;4.160;2023-08-06T02:35:07;13.05;;;5.53;;
57635;SDS011;43465;50.728;4.160;2023-08-06T02:37:33;10.10;;;6.07;;
57635;SDS011;43465;50.728;4.160;2023-08-06T02:39:59;12.63;;;6.88;;
57635;SDS011;43465;50.728;4.160;2023-08-06T02:42:25;12.45;;;6.97;;
57635;SDS011;43465;50.728;4.160;2023-08-06T02:44:52;12.07;;;7.63;;
57635;SDS011;43465;50.728;4.160;2023-08-06T02:47:20;11.65;;;7.05;;
57635;SDS011;43465;50.728;4.160;2023-08-06T02:49:46;11.80;;;7.13;;
57635;SDS011;43465;50.728;4.160;2023-08-06T02:52:11;10.25;;;6.47;;
57635;SDS011;43465;50.728;4.160;2023-08-06T02:54:37;10.13;;;6.53;;
57635;SDS011;43465;50.728;4.160;2023-08-06T02:57:03;10.23;;;6.30;;
57635;SDS011;43465;50.728;4.160;2023-08-06T02:59:30;9.50;;;6.85;;
57635;SDS011;43465;50.728;4.160;2023-08-06T03:01:56;12.30;;;7.90;;
57635;SDS011;43465;50.728;4.160;2023-08-06T03:04:21;19.17;;;9.25;;
57635;SDS011;43465;50.728;4.160;2023-08-06T03:06:49;14.77;;;8.73;;
57635;SDS011;43465;50.728;4.160;2023-08-06T03:09:15;7.95;;;5.88;;
57635;SDS011;43465;50.728;4.160;2023-08-06T03:11:41;5.72;;;3.72;;
57635;SDS011;43465;50.728;4.160;2023-08-06T03:14:07;3.40;;;2.65;;
57635;SDS011;43465;50.728;4.160;2023-08-06T03:16:33;2.40;;;2.20;;
57635;SDS011;43465;50.728;4.160;2023-08-06T03:18:59;5.60;;;2.20;;
57635;SDS011;43465;50.728;4.160;2023-08-06T03:21:24;4.38;;;2.05;;
57635;SDS011;43465;50.728;4.160;2023-08-06T03:23:50;5.97;;;2.20;;
57635;SDS011;43465;50.728;4.160;2023-08-06T03:26:15;4.97;;;2.60;;
57635;SDS011;43465;50.728;4.160;2023-08-06T03:28:41;5.03;;;2.28;;
57635;SDS011;43465;50.728;4.160;2023-08-06T03:31:07;4.93;;;2.33;;
57635;SDS011;43465;50.728;4.160;2023-08-06T03:33:33;5.53;;;2.60;;
57635;SDS011;43465;50.728;4.160;2023-08-06T03:35:58;6.22;;;3.35;;
57635;SDS011;43465;50.728;4.160;2023-08-06T03:38:24;6.75;;;4.47;;
57635;SDS011;43465;50.728;4.160;2023-08-06T03:40:50;10.00;;;5.22;;
57635;SDS011;43465;50.728;4.160;2023-08-06T03:43:15;9.30;;;5.53;;
57635;SDS011;43465;50.728;4.160;2023-08-06T03:45:41;14.00;;;6.43;;
57635;SDS011;43465;50.728;4.160;2023-08-06T03:48:07;9.13;;;5.80;;
57635;SDS011;43465;50.728;4.160;2023-08-06T03:50:33;9.80;;;6.47;;
57635;SDS011;43465;50.728;4.160;2023-08-06T03:52:59;12.52;;;6.03;;
57635;SDS011;43465;50.728;4.160;2023-08-06T03:55:25;13.55;;;5.35;;
57635;SDS011;43465;50.728;4.160;2023-08-06T03:57:52;13.35;;;6.07;;
57635;SDS011;43465;50.728;4.160;2023-08-06T04:00:18;13.40;;;6.60;;
57635;SDS011;43465;50.728;4.160;2023-08-06T04:02:43;13.02;;;7.00;;
57635;SDS011;43465;50.728;4.160;2023-08-06T04:05:09;12.35;;;7.10;;
57635;SDS011;43465;50.728;4.160;2023-08-06T04:07:35;11.85;;;7.00;;
57635;SDS011;43465;50.728;4.160;2023-08-06T04:10:01;12.52;;;6.55;;
57635;SDS011;43465;50.728;4.160;2023-08-06T04:12:29;11.70;;;6.20;;
57635;SDS011;43465;50.728;4.160;2023-08-06T04:14:55;7.63;;;5.82;;
57635;SDS011;43465;50.728;4.160;2023-08-06T04:17:22;8.65;;;5.75;;
57635;SDS011;43465;50.728;4.160;2023-08-06T04:19:52;11.50;;;5.97;;
57635;SDS011;43465;50.728;4.160;2023-08-06T04:22:19;10.32;;;6.45;;
57635;SDS011;43465;50.728;4.160;2023-08-06T04:24:46;10.45;;;7.05;;
57635;SDS011;43465;50.728;4.160;2023-08-06T04:27:13;10.85;;;7.00;;
57635;SDS011;43465;50.728;4.160;2023-08-06T04:29:39;8.30;;;6.70;;
57635;SDS011;43465;50.728;4.160;2023-08-06T04:32:06;9.68;;;6.80;;
57635;SDS011;43465;50.728;4.160;2023-08-06T04:34:33;12.77;;;8.18;;
57635;SDS011;43465;50.728;4.160;2023-08-06T04:36:59;13.18;;;8.30;;
57635;SDS011;43465;50.728;4.160;2023-08-06T04:39:26;11.13;;;8.10;;
57635;SDS011;43465;50.728;4.160;2023-08-06T04:41:51;9.55;;;7.85;;
57635;SDS011;43465;50.728;4.160;2023-08-06T04:44:17;16.27;;;9.02;;
57635;SDS011;43465;50.728;4.160;2023-08-06T04:46:43;12.65;;;8.52;;
57635;SDS011;43465;50.728;4.160;2023-08-06T04:49:08;15.18;;;8.43;;
57635;SDS011;43465;50.728;4.160;2023-08-06T04:51:34;18.75;;;8.25;;
57635;SDS011;43465;50.728;4.160;2023-08-06T04:54:00;12.40;;;7.32;;
57635;SDS011;43465;50.728;4.160;2023-08-06T04:56:26;16.85;;;8.65;;
57635;SDS011;43465;50.728;4.160;2023-08-06T04:58:52;16.75;;;8.00;;
57635;SDS011;43465;50.728;4.160;2023-08-06T05:01:17;10.48;;;7.03;;
57635;SDS011;43465;50.728;4.160;2023-08-06T05:03:43;13.10;;;6.60;;
57635;SDS011;43465;50.728;4.160;2023-08-06T05:06:09;11.95;;;6.63;;
57635;SDS011;43465;50.728;4.160;2023-08-06T05:08:35;14.88;;;6.82;;
57635;SDS011;43465;50.728;4.160;2023-08-06T05:11:01;15.95;;;6.47;;
57635;SDS011;43465;50.728;4.160;2023-08-06T05:13:27;15.68;;;6.55;;
57635;SDS011;43465;50.728;4.160;2023-08-06T05:15:55;19.40;;;6.78;;
57635;SDS011;43465;50.728;4.160;2023-08-06T05:18:21;16.98;;;7.10;;
57635;SDS011;43465;50.728;4.160;2023-08-06T05:20:47;13.70;;;5.45;;
57635;SDS011;43465;50.728;4.160;2023-08-06T05:23:13;17.13;;;5.95;;
57635;SDS011;43465;50.728;4.160;2023-08-06T05:25:38;17.13;;;6.18;;
57635;SDS011;43465;50.728;4.160;2023-08-06T05:28:04;20.20;;;6.30;;
57635;SDS011;43465;50.728;4.160;2023-08-06T05:30:30;16.77;;;7.10;;
57635;SDS011;43465;50.728;4.160;2023-08-06T05:32:56;16.05;;;5.80;;
57635;SDS011;43465;50.728;4.160;2023-08-06T05:35:22;16.75;;;5.72;;
57635;SDS011;43465;50.728;4.160;2023-08-06T05:37:48;12.50;;;5.60;;
57635;SDS011;43465;50.728;4.160;2023-08-06T05:40:14;13.18;;;5.45;;
57635;SDS011;43465;50.728;4.160;2023-08-06T05:42:40;15.57;;;5.20;;
57635;SDS011;43465;50.728;4.160;2023-08-06T05:45:07;11.77;;;4.90;;
57635;SDS011;43465;50.728;4.160;2023-08-06T05:47:33;13.65;;;5.35;;
57635;SDS011;43465;50.728;4.160;2023-08-06T05:49:59;15.35;;;6.07;;
57635;SDS011;43465;50.728;4.160;2023-08-06T05:52:24;13.32;;;4.82;;
57635;SDS011;43465;50.728;4.160;2023-08-06T05:54:50;16.52;;;5.85;;
57635;SDS011;43465;50.728;4.160;2023-08-06T05:57:16;15.52;;;5.18;;
57635;SDS011;43465;50.728;4.160;2023-08-06T05:59:42;13.10;;;5.40;;
57635;SDS011;43465;50.728;4.160;2023-08-06T06:02:07;12.15;;;4.28;;
57635;SDS011;43465;50.728;4.160;2023-08-06T06:04:33;12.57;;;5.25;;
57635;SDS011;43465;50.728;4.160;2023-08-06T06:06:59;14.30;;;5.00;;
57635;SDS011;43465;50.728;4.160;2023-08-06T06:09:25;9.90;;;5.03;;
57635;SDS011;43465;50.728;4.160;2023-08-06T06:11:50;12.43;;;5.00;;
57635;SDS011;43465;50.728;4.160;2023-08-06T06:14:16;14.25;;;5.30;;
57635;SDS011;43465;50.728;4.160;2023-08-06T06:16:42;16.83;;;5.10;;
57635;SDS011;43465;50.728;4.160;2023-08-06T06:19:08;14.55;;;5.68;;
57635;SDS011;43465;50.728;4.160;2023-08-06T06:21:34;14.40;;;6.07;;
57635;SDS011;43465;50.728;4.160;2023-08-06T06:23:59;12.55;;;5.30;;
57635;SDS011;43465;50.728;4.160;2023-08-06T06:26:25;16.80;;;6.07;;
57635;SDS011;43465;50.728;4.160;2023-08-06T06:28:51;19.02;;;5.60;;
57635;SDS011;43465;50.728;4.160;2023-08-06T06:31:16;19.25;;;5.55;;
57635;SDS011;43465;50.728;4.160;2023-08-06T06:33:42;12.35;;;5.13;;
57635;SDS011;43465;50.728;4.160;2023-08-06T06:36:08;12.60;;;5.60;;
57635;SDS011;43465;50.728;4.160;2023-08-06T06:38:34;13.60;;;5.10;;
57635;SDS011;43465;50.728;4.160;2023-08-06T06:41:00;13.70;;;4.53;;
57635;SDS011;43465;50.728;4.160;2023-08-06T06:43:28;9.57;;;4.03;;
57635;SDS011;43465;50.728;4.160;2023-08-06T06:45:55;6.70;;;3.35;;
57635;SDS011;43465;50.728;4.160;2023-08-06T06:48:22;6.00;;;2.35;;
57635;SDS011;43465;50.728;4.160;2023-08-06T06:50:48;5.90;;;1.95;;
57635;SDS011;43465;50.728;4.160;2023-08-06T06:53:14;6.63;;;2.28;;
57635;SDS011;43465;50.728;4.160;2023-08-06T06:55:40;8.55;;;2.20;;
57635;SDS011;43465;50.728;4.160;2023-08-06T06:58:05;8.30;;;2.42;;
57635;SDS011;43465;50.728;4.160;2023-08-06T07:00:31;11.05;;;2.40;;
57635;SDS011;43465;50.728;4.160;2023-08-06T07:02:56;8.98;;;2.40;;
57635;SDS011;43465;50.728;4.160;2023-08-06T07:05:22;9.88;;;2.28;;
57635;SDS011;43465;50.728;4.160;2023-08-06T07:07:48;9.23;;;2.42;;
57635;SDS011;43465;50.728;4.160;2023-08-06T07:10:13;9.23;;;2.30;;
57635;SDS011;43465;50.728;4.160;2023-08-06T07:12:39;7.75;;;1.85;;
57635;SDS011;43465;50.728;4.160;2023-08-06T07:15:05;9.55;;;2.30;;
57635;SDS011;43465;50.728;4.160;2023-08-06T07:17:32;9.95;;;2.40;;
57635;SDS011;43465;50.728;4.160;2023-08-06T07:19:57;11.10;;;2.33;;
57635;SDS011;43465;50.728;4.160;2023-08-06T07:22:23;12.95;;;2.60;;
57635;SDS011;43465;50.728;4.160;2023-08-06T07:24:49;11.63;;;2.35;;
57635;SDS011;43465;50.728;4.160;2023-08-06T07:27:14;10.23;;;2.10;;
57635;SDS011;43465;50.728;4.160;2023-08-06T07:29:40;15.45;;;2.45;;
57635;SDS011;43465;50.728;4.160;2023-08-06T07:32:06;15.10;;;2.50;;
57635;SDS011;43465;50.728;4.160;2023-08-06T07:34:32;13.40;;;2.20;;
57635;SDS011;43465;50.728;4.160;2023-08-06T07:36:58;10.88;;;2.53;;
57635;SDS011;43465;50.728;4.160;2023-08-06T07:39:24;10.32;;;2.30;;
57635;SDS011;43465;50.728;4.160;2023-08-06T07:41:49;11.77;;;2.55;;
57635;SDS011;43465;50.728;4.160;2023-08-06T07:44:15;11.55;;;2.50;;
57635;SDS011;43465;50.728;4.160;2023-08-06T07:46:41;9.70;;;2.00;;
57635;SDS011;43465;50.728;4.160;2023-08-06T07:49:07;8.02;;;2.40;;
57635;SDS011;43465;50.728;4.160;2023-08-06T07:51:33;12.38;;;2.78;;
57635;SDS011;43465;50.728;4.160;2023-08-06T07:53:59;9.27;;;2.63;;
57635;SDS011;43465;50.728;4.160;2023-08-06T07:56:24;13.82;;;2.95;;
57635;SDS011;43465;50.728;4.160;2023-08-06T07:58:50;9.82;;;2.63;;
57635;SDS011;43465;50.728;4.160;2023-08-06T08:01:15;9.48;;;2.22;;
57635;SDS011;43465;50.728;4.160;2023-08-06T08:03:41;4.28;;;1.85;;
57635;SDS011;43465;50.728;4.160;2023-08-06T08:06:07;9.77;;;2.20;;
57635;SDS011;43465;50.728;4.160;2023-08-06T08:08:32;7.85;;;2.15;;
57635;SDS011;43465;50.728;4.160;2023-08-06T08:10:58;4.82;;;1.67;;
57635;SDS011;43465;50.728;4.160;2023-08-06T08:13:25;8.65;;;2.10;;
57635;SDS011;43465;50.728;4.160;2023-08-06T08:15:55;5.97;;;1.80;;
57635;SDS011;43465;50.728;4.160;2023-08-06T08:18:23;5.77;;;1.70;;
57635;SDS011;43465;50.728;4.160;2023-08-06T08:20:48;6.57;;;2.03;;
57635;SDS011;43465;50.728;4.160;2023-08-06T08:23:14;6.43;;;1.55;;
57635;SDS011;43465;50.728;4.160;2023-08-06T08:25:40;5.72;;;1.40;;
57635;SDS011;43465;50.728;4.160;2023-08-06T08:28:05;6.13;;;1.70;;
57635;SDS011;43465;50.728;4.160;2023-08-06T08:30:32;8.50;;;2.13;;
57635;SDS011;43465;50.728;4.160;2023-08-06T08:32:57;6.90;;;1.88;;
57635;SDS011;43465;50.728;4.160;2023-08-06T08:35:23;6.25;;;1.85;;
57635;SDS011;43465;50.728;4.160;2023-08-06T08:37:49;9.48;;;2.05;;
57635;SDS011;43465;50.728;4.160;2023-08-06T08:40:15;13.98;;;3.58;;
57635;SDS011;43465;50.728;4.160;2023-08-06T08:42:41;15.52;;;2.92;;
57635;SDS011;43465;50.728;4.160;2023-08-06T08:45:11;9.63;;;3.05;;
57635;SDS011;43465;50.728;4.160;2023-08-06T08:47:41;18.33;;;5.55;;
57635;SDS011;43465;50.728;4.160;2023-08-06T08:50:08;9.93;;;2.70;;
57635;SDS011;43465;50.728;4.160;2023-08-06T08:52:35;12.40;;;3.85;;
57635;SDS011;43465;50.728;4.160;2023-08-06T08:55:03;19.73;;;6.25;;
57635;SDS011;43465;50.728;4.160;2023-08-06T08:57:29;9.00;;;2.35;;
57635;SDS011;43465;50.728;4.160;2023-08-06T08:59:54;6.10;;;2.15;;
57635;SDS011;43465;50.728;4.160;2023-08-06T09:02:21;8.07;;;2.38;;
57635;SDS011;43465;50.728;4.160;2023-08-06T09:04:48;9.65;;;2.60;;
57635;SDS011;43465;50.728;4.160;2023-08-06T09:07:16;7.05;;;2.20;;
57635;SDS011;43465;50.728;4.160;2023-08-06T09:09:45;12.10;;;2.97;;
57635;SDS011;43465;50.728;4.160;2023-08-06T09:12:14;9.95;;;2.78;;
57635;SDS011;43465;50.728;4.160;2023-08-06T09:14:41;7.03;;;2.22;;
57635;SDS011;43465;50.728;4.160;2023-08-06T09:17:07;7.95;;;2.25;;
57635;SDS011;43465;50.728;4.160;2023-08-06T09:19:35;8.18;;;2.25;;
57635;SDS011;43465;50.728;4.160;2023-08-06T09:22:01;10.57;;;2.35;;
57635;SDS011;43465;50.728;4.160;2023-08-06T09:24:27;14.35;;;2.65;;
57635;SDS011;43465;50.728;4.160;2023-08-06T09:26:53;17.25;;;2.35;;
57635;SDS011;43465;50.728;4.160;2023-08-06T09:29:19;9.68;;;2.35;;
57635;SDS011;43465;50.728;4.160;2023-08-06T09:31:49;7.18;;;2.53;;
57635;SDS011;43465;50.728;4.160;2023-08-06T09:34:19;8.10;;;2.20;;
57635;SDS011;43465;50.728;4.160;2023-08-06T09:36:48;6.60;;;1.90;;
57635;SDS011;43465;50.728;4.160;2023-08-06T09:39:16;7.95;;;2.10;;
57635;SDS011;43465;50.728;4.160;2023-08-06T09:41:46;10.15;;;2.22;;
57635;SDS011;43465;50.728;4.160;2023-08-06T09:44:16;17.65;;;2.55;;
57635;SDS011;43465;50.728;4.160;2023-08-06T09:46:43;7.57;;;1.88;;
57635;SDS011;43465;50.728;4.160;2023-08-06T09:49:18;12.02;;;2.75;;
57635;SDS011;43465;50.728;4.160;2023-08-06T09:51:46;7.38;;;2.20;;
57635;SDS011;43465;50.728;4.160;2023-08-06T09:54:15;10.57;;;2.35;;
57635;SDS011;43465;50.728;4.160;2023-08-06T09:56:42;8.32;;;1.80;;
57635;SDS011;43465;50.728;4.160;2023-08-06T09:59:08;7.53;;;2.17;;
57635;SDS011;43465;50.728;4.160;2023-08-06T10:01:35;8.52;;;2.10;;
57635;SDS011;43465;50.728;4.160;2023-08-06T10:04:01;5.88;;;1.67;;
57635;SDS011;43465;50.728;4.160;2023-08-06T10:06:29;6.28;;;1.85;;
57635;SDS011;43465;50.728;4.160;2023-08-06T10:08:58;11.73;;;1.77;;
57635;SDS011;43465;50.728;4.160;2023-08-06T10:11:24;8.20;;;2.10;;
57635;SDS011;43465;50.728;4.160;2023-08-06T10:13:54;7.82;;;2.08;;
57635;SDS011;43465;50.728;4.160;2023-08-06T10:16:26;5.10;;;2.10;;
57635;SDS011;43465;50.728;4.160;2023-08-06T10:18:52;7.30;;;1.88;;
57635;SDS011;43465;50.728;4.160;2023-08-06T10:21:19;7.35;;;1.95;;
57635;SDS011;43465;50.728;4.160;2023-08-06T10:23:49;6.03;;;2.30;;
57635;SDS011;43465;50.728;4.160;2023-08-06T10:26:19;7.50;;;2.20;;
57635;SDS011;43465;50.728;4.160;2023-08-06T10:28:44;6.95;;;2.22;;
57635;SDS011;43465;50.728;4.160;2023-08-06T10:31:10;6.63;;;2.40;;
57635;SDS011;43465;50.728;4.160;2023-08-06T10:36:09;9.43;;;2.35;;
57635;SDS011;43465;50.728;4.160;2023-08-06T10:38:37;5.45;;;2.50;;
57635;SDS011;43465;50.728;4.160;2023-08-06T10:41:15;7.10;;;2.53;;
57635;SDS011;43465;50.728;4.160;2023-08-06T10:43:50;6.38;;;2.25;;
57635;SDS011;43465;50.728;4.160;2023-08-06T10:46:49;11.75;;;2.70;;
57635;SDS011;43465;50.728;4.160;2023-08-06T10:49:08;10.02;;;3.08;;
57635;SDS011;43465;50.728;4.160;2023-08-06T10:51:36;9.40;;;2.50;;
57635;SDS011;43465;50.728;4.160;2023-08-06T10:54:02;10.30;;;2.92;;
57635;SDS011;43465;50.728;4.160;2023-08-06T10:56:27;12.38;;;2.70;;
57635;SDS011;43465;50.728;4.160;2023-08-06T10:58:54;8.68;;;2.55;;
57635;SDS011;43465;50.728;4.160;2023-08-06T11:01:22;8.73;;;2.65;;
57635;SDS011;43465;50.728;4.160;2023-08-06T11:03:48;4.57;;;2.10;;
57635;SDS011;43465;50.728;4.160;2023-08-06T11:06:19;9.15;;;2.13;;
57635;SDS011;43465;50.728;4.160;2023-08-06T11:08:49;5.63;;;2.47;;
57635;SDS011;43465;50.728;4.160;2023-08-06T11:11:19;8.02;;;2.30;;
57635;SDS011;43465;50.728;4.160;2023-08-06T11:13:49;8.43;;;2.35;;
57635;SDS011;43465;50.728;4.160;2023-08-06T11:16:16;8.32;;;2.17;;
57635;SDS011;43465;50.728;4.160;2023-08-06T11:18:44;7.70;;;2.35;;
57635;SDS011;43465;50.728;4.160;2023-08-06T11:21:10;6.25;;;1.92;;
57635;SDS011;43465;50.728;4.160;2023-08-06T11:23:37;6.47;;;2.10;;
57635;SDS011;43465;50.728;4.160;2023-08-06T11:26:02;9.35;;;1.77;;
57635;SDS011;43465;50.728;4.160;2023-08-06T11:28:28;7.88;;;2.20;;
57635;SDS011;43465;50.728;4.160;2023-08-06T11:30:54;5.80;;;1.80;;
57635;SDS011;43465;50.728;4.160;2023-08-06T11:35:50;6.65;;;2.03;;
57635;SDS011;43465;50.728;4.160;2023-08-06T11:38:16;10.43;;;2.10;;
57635;SDS011;43465;50.728;4.160;2023-08-06T11:40:49;7.35;;;2.17;;
57635;SDS011;43465;50.728;4.160;2023-08-06T11:45:43;8.90;;;2.50;;
57635;SDS011;43465;50.728;4.160;2023-08-06T11:48:09;6.15;;;2.10;;
57635;SDS011;43465;50.728;4.160;2023-08-06T11:50:37;6.97;;;2.40;;
57635;SDS011;43465;50.728;4.160;2023-08-06T11:53:06;7.20;;;2.28;;
57635;SDS011;43465;50.728;4.160;2023-08-06T11:55:32;8.35;;;2.20;;
57635;SDS011;43465;50.728;4.160;2023-08-06T11:58:03;7.45;;;2.50;;
57635;SDS011;43465;50.728;4.160;2023-08-06T12:00:32;4.75;;;2.05;;
57635;SDS011;43465;50.728;4.160;2023-08-06T12:02:57;4.38;;;2.10;;
57635;SDS011;43465;50.728;4.160;2023-08-06T12:05:28;6.78;;;2.13;;
57635;SDS011;43465;50.728;4.160;2023-08-06T12:07:56;9.27;;;2.35;;
57635;SDS011;43465;50.728;4.160;2023-08-06T12:10:24;7.28;;;2.08;;
57635;SDS011;43465;50.728;4.160;2023-08-06T12:12:50;4.10;;;2.00;;
57635;SDS011;43465;50.728;4.160;2023-08-06T12:15:16;5.85;;;2.00;;
57635;SDS011;43465;50.728;4.160;2023-08-06T12:17:42;8.43;;;2.42;;
57635;SDS011;43465;50.728;4.160;2023-08-06T12:20:08;8.40;;;2.58;;
57635;SDS011;43465;50.728;4.160;2023-08-06T12:22:35;6.00;;;2.55;;
57635;SDS011;43465;50.728;4.160;2023-08-06T12:25:03;5.57;;;2.17;;
57635;SDS011;43465;50.728;4.160;2023-08-06T12:27:33;6.97;;;2.00;;
57635;SDS011;43465;50.728;4.160;2023-08-06T12:30:00;9.35;;;2.03;;
57635;SDS011;43465;50.728;4.160;2023-08-06T12:32:26;5.03;;;2.00;;
57635;SDS011;43465;50.728;4.160;2023-08-06T12:34:51;5.38;;;1.92;;
57635;SDS011;43465;50.728;4.160;2023-08-06T12:37:17;6.43;;;2.35;;
57635;SDS011;43465;50.728;4.160;2023-08-06T12:39:43;4.05;;;2.03;;
57635;SDS011;43465;50.728;4.160;2023-08-06T12:42:08;9.35;;;2.63;;
57635;SDS011;43465;50.728;4.160;2023-08-06T12:44:35;6.53;;;2.40;;
57635;SDS011;43465;50.728;4.160;2023-08-06T12:47:01;7.03;;;2.60;;
57635;SDS011;43465;50.728;4.160;2023-08-06T12:49:27;6.80;;;2.30;;
57635;SDS011;43465;50.728;4.160;2023-08-06T12:51:53;6.93;;;2.22;;
57635;SDS011;43465;50.728;4.160;2023-08-06T12:54:19;12.05;;;2.90;;
57635;SDS011;43465;50.728;4.160;2023-08-06T12:56:46;10.80;;;2.53;;
57635;SDS011;43465;50.728;4.160;2023-08-06T12:59:13;8.10;;;2.50;;
57635;SDS011;43465;50.728;4.160;2023-08-06T13:01:39;9.23;;;2.95;;
57635;SDS011;43465;50.728;4.160;2023-08-06T13:04:05;7.32;;;2.70;;
57635;SDS011;43465;50.728;4.160;2023-08-06T13:06:31;8.65;;;2.78;;
57635;SDS011;43465;50.728;4.160;2023-08-06T13:09:08;6.78;;;2.30;;
57635;SDS011;43465;50.728;4.160;2023-08-06T13:11:34;8.73;;;2.72;;
57635;SDS011;43465;50.728;4.160;2023-08-06T13:14:08;9.02;;;2.40;;
57635;SDS011;43465;50.728;4.160;2023-08-06T13:16:35;9.35;;;2.17;;
57635;SDS011;43465;50.728;4.160;2023-08-06T13:19:01;8.02;;;2.22;;
57635;SDS011;43465;50.728;4.160;2023-08-06T13:21:34;6.63;;;2.00;;
57635;SDS011;43465;50.728;4.160;2023-08-06T13:24:02;7.03;;;2.05;;
57635;SDS011;43465;50.728;4.160;2023-08-06T13:26:29;5.25;;;1.58;;
57635;SDS011;43465;50.728;4.160;2023-08-06T13:28:56;5.07;;;1.70;;
57635;SDS011;43465;50.728;4.160;2023-08-06T13:31:22;3.05;;;1.30;;
57635;SDS011;43465;50.728;4.160;2023-08-06T13:33:48;5.00;;;1.40;;
57635;SDS011;43465;50.728;4.160;2023-08-06T13:36:15;6.63;;;1.80;;
57635;SDS011;43465;50.728;4.160;2023-08-06T13:38:41;4.15;;;1.38;;
57635;SDS011;43465;50.728;4.160;2023-08-06T13:41:06;6.13;;;1.60;;
57635;SDS011;43465;50.728;4.160;2023-08-06T13:43:32;4.60;;;1.42;;
57635;SDS011;43465;50.728;4.160;2023-08-06T13:45:58;4.40;;;1.58;;
57635;SDS011;43465;50.728;4.160;2023-08-06T13:48:23;6.20;;;1.58;;
57635;SDS011;43465;50.728;4.160;2023-08-06T13:50:49;7.47;;;1.75;;
57635;SDS011;43465;50.728;4.160;2023-08-06T13:53:15;7.75;;;1.88;;
57635;SDS011;43465;50.728;4.160;2023-08-06T13:55:40;7.45;;;2.08;;
57635;SDS011;43465;50.728;4.160;2023-08-06T13:58:06;7.38;;;1.45;;
57635;SDS011;43465;50.728;4.160;2023-08-06T14:00:32;8.40;;;1.85;;
57635;SDS011;43465;50.728;4.160;2023-08-06T14:02:57;6.00;;;1.25;;
57635;SDS011;43465;50.728;4.160;2023-08-06T14:05:23;6.40;;;1.48;;
57635;SDS011;43465;50.728;4.160;2023-08-06T14:07:49;3.03;;;0.90;;
57635;SDS011;43465;50.728;4.160;2023-08-06T14:10:14;4.75;;;1.27;;
57635;SDS011;43465;50.728;4.160;2023-08-06T14:12:40;5.05;;;1.33;;
57635;SDS011;43465;50.728;4.160;2023-08-06T14:15:06;6.35;;;1.90;;
57635;SDS011;43465;50.728;4.160;2023-08-06T14:17:32;6.43;;;1.85;;
57635;SDS011;43465;50.728;4.160;2023-08-06T14:19:57;3.63;;;1.58;;
57635;SDS011;43465;50.728;4.160;2023-08-06T14:22:23;7.53;;;1.70;;
57635;SDS011;43465;50.728;4.160;2023-08-06T14:24:49;10.68;;;2.30;;
57635;SDS011;43465;50.728;4.160;2023-08-06T14:27:14;6.88;;;1.90;;
57635;SDS011;43465;50.728;4.160;2023-08-06T14:29:40;9.88;;;2.10;;
57635;SDS011;43465;50.728;4.160;2023-08-06T14:32:05;6.72;;;2.13;;
57635;SDS011;43465;50.728;4.160;2023-08-06T14:34:31;8.90;;;2.22;;
57635;SDS011;43465;50.728;4.160;2023-08-06T14:36:57;10.18;;;2.33;;
57635;SDS011;43465;50.728;4.160;2023-08-06T14:39:24;9.90;;;2.08;;
57635;SDS011;43465;50.728;4.160;2023-08-06T14:41:49;6.40;;;1.80;;
57635;SDS011;43465;50.728;4.160;2023-08-06T14:44:15;8.07;;;2.28;;
57635;SDS011;43465;50.728;4.160;2023-08-06T14:46:41;5.45;;;1.63;;
57635;SDS011;43465;50.728;4.160;2023-08-06T14:49:06;5.35;;;2.22;;
57635;SDS011;43465;50.728;4.160;2023-08-06T14:51:32;10.82;;;1.98;;